Quick Links (Output Below):   Max & Min Temps   /   Climate Reports   /   Zone Forecasts
River Forecasts   /   Forestry Forecasts   /   Aviation Forecasts   /   Radars   /   Features

Terminal Aerodrome Forecast (El Dorado)

Pick a Site:
Arkadelphia | El Dorado | Fayetteville | Fort Smith | Harrison | Highfill | Hot Springs | Jonesboro
Little Rock | Monticello | Mountain Home | Pine Bluff | Texarkana
 Forecast 

KELD 202340Z 2100/2124 10005KT P6SM FEW100
     FM210200 00000KT P6SM FEW250
      TEMPO 2108/2112 3SM BR
     FM211500 30005KT P6SM SCT040 SCT250=


 Latest METARs (Observations) 
How to Decode METARs
02Z KELD 210153Z AUTO 00000KT 10SM CLR 23/21 A2999 RMK AO2 SLP152
         T02280206
         
01Z KELD 210053Z AUTO 00000KT 10SM CLR 24/22 A2996 RMK AO2 SLP141
         T02390217
         
00Z KELD 202353Z AUTO 32003KT 10SM CLR 27/22 A2996 RMK AO2 SLP141
         T02720222 10333 20272 56009
         
***** Today's Observations (Above) *****


23Z KELD 202253Z AUTO 03004KT 10SM FEW110 31/19 A2996 RMK AO2 SLP142
         T03110194
         
22Z KELD 202153Z AUTO 04005KT 10SM FEW120 32/19 A2997 RMK AO2 SLP144
         T03220189
         
21Z KELD 202053Z AUTO 35003KT 10SM FEW060 31/19 A2999 RMK AO2 SLP150
         T03110189 56019
         
20Z KELD 201953Z AUTO 00000KT 10SM SCT050 32/18 A2999 RMK AO2 SLP152
         T03220183
         
19Z KELD 201853Z AUTO VRB03KT 10SM SCT050 32/19 A3002 RMK AO2 SLP161
         T03170189
         
18Z KELD 201753Z AUTO VRB03KT 10SM FEW047 SCT055 30/19 A3004 RMK AO2
         SLP169 T03000194 10306 20183 58006
         
17Z KELD 201653Z AUTO 10005KT 10SM CLR 30/20 A3005 RMK AO2 SLP173
         T03000200
         
***** Yesterday's Observations (Above) *****


Back to Main Page
http://www.srh.noaa.gov/lzk/qfcst.php

USA.gov is the U.S. government's official web portal to all federal, state and local government web resources and services.